createdAt,value
2022-11-12T00:01:26.924Z,2.65
2022-11-12T00:03:55.971Z,2.30
2022-11-12T00:06:24.381Z,2.30
2022-11-12T00:08:52.757Z,2.33
2022-11-12T00:11:22.630Z,2.60
2022-11-12T00:13:50.958Z,2.78
2022-11-12T00:16:19.674Z,2.45
2022-11-12T00:18:48.931Z,2.50
2022-11-12T00:21:17.232Z,2.42
2022-11-12T00:23:45.610Z,2.08
2022-11-12T00:26:13.954Z,2.30
2022-11-12T00:28:43.674Z,1.85
2022-11-12T00:31:13.096Z,1.88
2022-11-12T00:33:42.915Z,1.75
2022-11-12T00:36:12.180Z,1.70
2022-11-12T00:38:41.046Z,1.60
2022-11-12T00:41:09.598Z,1.60
2022-11-12T00:43:37.950Z,1.83
2022-11-12T00:46:07.866Z,1.90
2022-11-12T00:48:36.181Z,1.95
2022-11-12T00:51:05.949Z,1.90
2022-11-12T00:53:34.365Z,1.33
2022-11-12T00:56:04.140Z,1.20
2022-11-12T00:58:36.048Z,1.30
2022-11-12T01:01:11.617Z,1.13
2022-11-12T01:03:41.743Z,1.20
2022-11-12T01:06:12.188Z,1.00
2022-11-12T01:08:40.966Z,2.08
2022-11-12T01:11:10.837Z,1.52
2022-11-12T01:13:44.160Z,1.85
2022-11-12T01:18:45.101Z,1.90
2022-11-12T01:21:14.654Z,1.95
2022-11-12T01:23:43.990Z,2.38
2022-11-12T01:26:14.829Z,2.00
2022-11-12T01:28:44.152Z,2.20
2022-11-12T01:31:15.870Z,2.13
2022-11-12T01:33:45.085Z,2.92
2022-11-12T01:36:14.217Z,2.72
2022-11-12T01:38:44.362Z,3.10
2022-11-12T01:41:15.237Z,3.17
2022-11-12T01:43:43.946Z,2.90
2022-11-12T01:46:20.675Z,3.00
2022-11-12T01:48:52.116Z,3.13
2022-11-12T01:51:22.366Z,3.35
2022-11-12T01:53:56.500Z,3.10
2022-11-12T01:56:25.885Z,3.00
2022-11-12T01:59:01.057Z,3.00
2022-11-12T02:01:32.718Z,2.90
2022-11-12T02:04:01.715Z,2.80
2022-11-12T02:06:30.457Z,3.28
2022-11-12T02:08:59.538Z,2.47
2022-11-12T02:11:28.052Z,2.40
2022-11-12T02:13:58.497Z,2.42
2022-11-12T02:16:29.946Z,2.55
2022-11-12T02:18:59.906Z,2.50
2022-11-12T02:21:30.342Z,2.35
2022-11-12T02:24:00.057Z,2.45
2022-11-12T02:26:33.079Z,2.15
2022-11-12T02:29:02.150Z,2.00
2022-11-12T02:31:31.046Z,1.60
2022-11-12T02:33:59.407Z,1.75
2022-11-12T02:36:27.866Z,1.80
2022-11-12T02:38:58.331Z,1.80
2022-11-12T02:41:26.679Z,1.58
2022-11-12T02:43:55.132Z,2.00
2022-11-12T02:46:23.779Z,1.10
2022-11-12T02:48:52.226Z,1.30
2022-11-12T02:51:20.570Z,1.33
2022-11-12T02:53:48.929Z,1.13
2022-11-12T02:56:18.746Z,1.00
2022-11-12T02:58:47.111Z,1.10
2022-11-12T03:01:15.586Z,1.20
2022-11-12T03:03:44.040Z,1.40
2022-11-12T03:06:12.472Z,1.00
2022-11-12T03:08:40.898Z,1.10
2022-11-12T03:11:11.246Z,0.98
2022-11-12T03:13:41.419Z,0.90
2022-11-12T03:16:10.078Z,1.00
2022-11-12T03:18:39.121Z,1.05
2022-11-12T03:21:08.447Z,0.70
2022-11-12T03:23:37.499Z,0.70
2022-11-12T03:26:06.857Z,0.80
2022-11-12T03:28:35.297Z,0.80
2022-11-12T03:31:05.018Z,0.80
2022-11-12T03:33:33.825Z,0.50
2022-11-12T03:36:02.229Z,0.47
2022-11-12T03:38:30.673Z,0.40
2022-11-12T03:40:59.372Z,0.30
2022-11-12T03:43:27.812Z,0.55
2022-11-12T03:45:56.549Z,0.20
2022-11-12T03:48:26.703Z,0.30
2022-11-12T03:50:59.248Z,0.38
2022-11-12T03:53:28.270Z,0.40
2022-11-12T03:55:56.718Z,0.30
2022-11-12T03:58:25.461Z,0.40
2022-11-12T04:00:55.006Z,0.52
2022-11-12T04:03:23.542Z,0.68
2022-11-12T04:06:10.522Z,0.50
2022-11-12T04:08:38.883Z,0.50
2022-11-12T04:11:10.050Z,0.35
2022-11-12T04:13:39.629Z,0.52
2022-11-12T04:16:27.548Z,0.40
2022-11-12T04:19:15.555Z,0.40
2022-11-12T04:21:54.956Z,0.40
2022-11-12T04:24:45.529Z,0.50
2022-11-12T04:27:17.702Z,0.47
2022-11-12T04:30:04.966Z,0.60
2022-11-12T04:32:35.217Z,0.50
2022-11-12T04:35:04.059Z,0.80
2022-11-12T04:37:44.824Z,0.68
2022-11-12T04:40:31.854Z,0.60
2022-11-12T04:43:17.905Z,0.80
2022-11-12T04:45:49.602Z,0.88
2022-11-12T04:48:18.177Z,0.90
2022-11-12T04:50:49.427Z,1.63
2022-11-12T04:53:20.578Z,1.83
2022-11-12T04:55:51.467Z,2.17
2022-11-12T04:58:20.650Z,2.30
2022-11-12T05:00:49.516Z,2.10
2022-11-12T05:03:18.216Z,2.05
2022-11-12T05:05:46.609Z,2.00
2022-11-12T05:08:15.073Z,2.00
2022-11-12T05:10:46.114Z,2.17
2022-11-12T05:13:14.626Z,2.35
2022-11-12T05:15:45.284Z,1.90
2022-11-12T05:18:13.666Z,2.30
2022-11-12T05:20:42.147Z,3.20
2022-11-12T05:23:10.451Z,2.45
2022-11-12T05:25:38.969Z,2.00
2022-11-12T05:28:08.775Z,1.70
2022-11-12T05:30:37.125Z,1.20
2022-11-12T05:33:05.925Z,1.25
2022-11-12T05:35:34.634Z,1.65
2022-11-12T05:38:02.994Z,1.60
2022-11-12T05:40:32.097Z,1.63
2022-11-12T05:43:00.450Z,1.33
2022-11-12T05:45:30.269Z,1.00
2022-11-12T05:47:58.970Z,0.82
2022-11-12T05:50:34.965Z,0.82
2022-11-12T05:53:08.560Z,0.90
2022-11-12T05:55:37.363Z,1.05
2022-11-12T05:58:07.724Z,0.80
2022-11-12T06:00:39.314Z,1.02
2022-11-12T06:03:07.693Z,1.20
2022-11-12T06:05:36.384Z,1.02
2022-11-12T06:08:06.646Z,1.80
2022-11-12T06:10:35.208Z,2.30
2022-11-12T06:13:03.633Z,2.30
2022-11-12T06:15:35.212Z,3.50
2022-11-12T06:18:09.329Z,6.75
2022-11-12T06:20:37.853Z,11.35
2022-11-12T06:23:06.520Z,7.47
2022-11-12T06:25:34.866Z,5.82
2022-11-12T06:28:03.255Z,4.75
2022-11-12T06:30:31.650Z,5.28
2022-11-12T06:33:00.050Z,2.47
2022-11-12T06:35:29.800Z,1.70
2022-11-12T06:37:58.903Z,2.40
2022-11-12T06:40:28.298Z,2.10
2022-11-12T06:42:59.710Z,2.20
2022-11-12T06:45:28.167Z,7.15
2022-11-12T06:48:00.501Z,3.45
2022-11-12T06:50:30.436Z,2.75
2022-11-12T06:53:02.558Z,2.70
2022-11-12T06:55:30.994Z,1.70
2022-11-12T06:57:59.365Z,1.25
2022-11-12T07:00:28.162Z,1.15
2022-11-12T07:02:56.596Z,2.08
2022-11-12T07:05:24.971Z,1.50
2022-11-12T07:07:56.459Z,3.85
2022-11-12T07:10:24.847Z,1.55
2022-11-12T07:12:55.667Z,1.90
2022-11-12T07:15:24.165Z,1.52
2022-11-12T07:17:53.108Z,1.20
2022-11-12T07:20:22.210Z,1.20
2022-11-12T07:22:50.691Z,7.68
2022-11-12T07:25:21.426Z,3.70
2022-11-12T07:27:50.420Z,2.53
2022-11-12T07:30:19.243Z,1.35
2022-11-12T07:32:51.766Z,1.75
2022-11-12T07:35:21.822Z,2.40
2022-11-12T07:37:50.277Z,1.88
2022-11-12T07:40:20.403Z,2.70
2022-11-12T07:42:48.810Z,2.50
2022-11-12T07:45:17.407Z,1.83
2022-11-12T07:47:45.858Z,1.42
2022-11-12T07:50:15.039Z,2.38
2022-11-12T07:52:43.574Z,2.22
2022-11-12T07:55:12.096Z,2.00
2022-11-12T07:57:42.477Z,2.38
2022-11-12T08:00:12.547Z,2.47
2022-11-12T08:02:41.208Z,2.38
2022-11-12T08:05:15.461Z,2.45
2022-11-12T08:07:47.390Z,2.50
2022-11-12T08:10:16.683Z,2.22
2022-11-12T08:12:46.901Z,2.33
2022-11-12T08:15:15.321Z,2.58
2022-11-12T08:17:43.823Z,2.10
2022-11-12T08:20:13.279Z,8.93
2022-11-12T08:22:46.396Z,17.40
2022-11-12T08:25:19.242Z,7.53
2022-11-12T08:27:49.846Z,4.20
2022-11-12T08:30:18.662Z,4.07
2022-11-12T08:32:47.114Z,3.13
2022-11-12T08:35:16.178Z,3.03
2022-11-12T08:37:44.937Z,3.08
2022-11-12T08:40:15.283Z,3.42
2022-11-12T08:42:43.823Z,3.70
2022-11-12T08:45:14.167Z,2.92
2022-11-12T08:47:43.699Z,3.30
2022-11-12T08:50:12.416Z,3.80
2022-11-12T08:52:40.803Z,4.35
2022-11-12T08:55:10.227Z,3.83
2022-11-12T08:57:43.199Z,3.90
2022-11-12T09:00:15.143Z,5.45
2022-11-12T09:02:43.562Z,5.53
2022-11-12T09:05:12.155Z,6.63
2022-11-12T09:07:50.089Z,10.10
2022-11-12T09:10:19.359Z,9.90
2022-11-12T09:12:53.583Z,9.38
2022-11-12T09:15:39.914Z,10.50
2022-11-12T09:18:12.525Z,9.25
2022-11-12T09:20:41.482Z,10.13
2022-11-12T09:23:11.842Z,8.93
2022-11-12T09:25:40.421Z,8.40
2022-11-12T09:28:11.594Z,8.52
2022-11-12T09:30:45.917Z,7.45
2022-11-12T09:33:15.378Z,8.20
2022-11-12T09:35:44.764Z,6.43
2022-11-12T09:38:15.013Z,6.32
2022-11-12T09:41:03.598Z,7.88
2022-11-12T09:43:36.235Z,7.88
2022-11-12T09:46:27.070Z,8.32
2022-11-12T09:49:04.007Z,7.88
2022-11-12T09:51:35.360Z,8.25
2022-11-12T09:54:09.014Z,8.52
2022-11-12T09:56:37.545Z,8.20
2022-11-12T09:59:11.030Z,7.90
2022-11-12T10:01:53.861Z,5.97
2022-11-12T10:04:38.883Z,7.05
2022-11-12T10:07:15.349Z,4.45
2022-11-12T10:09:59.886Z,5.85
2022-11-12T10:12:39.162Z,7.00
2022-11-12T10:15:58.792Z,23.05
2022-11-12T10:18:55.452Z,13.27
2022-11-12T10:21:32.508Z,10.57
2022-11-12T10:24:02.934Z,7.15
2022-11-12T10:26:35.026Z,5.30
2022-11-12T10:29:14.631Z,3.58
2022-11-12T10:31:43.535Z,3.63
2022-11-12T10:34:24.205Z,3.42
2022-11-12T10:36:56.505Z,2.92
2022-11-12T10:39:36.676Z,3.55
2022-11-12T10:42:09.030Z,3.88
2022-11-12T10:44:38.337Z,3.13
2022-11-12T10:47:34.543Z,3.33
2022-11-12T10:50:24.131Z,3.30
2022-11-12T10:53:03.462Z,3.40
2022-11-12T10:55:34.733Z,3.40
2022-11-12T10:58:19.845Z,6.97
2022-11-12T11:01:01.036Z,9.13
2022-11-12T11:03:33.471Z,9.25
2022-11-12T11:06:04.800Z,9.98
2022-11-12T11:08:36.371Z,11.10
2022-11-12T11:11:27.935Z,8.00
2022-11-12T11:13:58.309Z,6.07
2022-11-12T11:16:29.492Z,6.15
2022-11-12T11:19:01.166Z,7.85
2022-11-12T11:22:25.375Z,6.95
2022-11-12T11:25:11.977Z,5.82
2022-11-12T11:27:49.470Z,2.88
2022-11-12T11:30:21.073Z,3.00
2022-11-12T11:33:34.529Z,3.40
2022-11-12T11:36:17.866Z,4.55
2022-11-12T11:38:58.476Z,4.50
2022-11-12T11:41:42.575Z,2.45
2022-11-12T11:44:22.269Z,2.25
2022-11-12T11:47:00.107Z,2.60
2022-11-12T11:49:51.629Z,2.47
2022-11-12T11:52:39.736Z,2.22
2022-11-12T11:55:24.898Z,3.30
2022-11-12T11:58:01.656Z,2.85
2022-11-12T12:00:36.942Z,3.78
2022-11-12T12:03:18.852Z,3.30
2022-11-12T12:06:05.323Z,3.03
2022-11-12T12:08:46.888Z,2.97
2022-11-12T12:11:22.759Z,3.05
2022-11-12T12:14:11.917Z,3.05
2022-11-12T12:16:54.912Z,2.63
2022-11-12T12:19:37.980Z,1.93
2022-11-12T12:22:12.494Z,2.40
2022-11-12T12:24:50.669Z,3.63
2022-11-12T12:27:27.920Z,3.20
2022-11-12T12:30:00.542Z,2.55
2022-11-12T12:32:34.710Z,2.17
2022-11-12T12:35:09.637Z,1.70
2022-11-12T12:37:47.245Z,2.15
2022-11-12T12:40:23.153Z,3.13
2022-11-12T12:43:04.681Z,2.83
2022-11-12T12:45:40.576Z,3.95
2022-11-12T12:48:16.446Z,3.70
2022-11-12T12:50:46.145Z,2.10
2022-11-12T12:53:20.275Z,1.70
2022-11-12T12:55:51.154Z,1.65
2022-11-12T12:58:27.942Z,2.22
2022-11-12T13:01:04.052Z,2.25
2022-11-12T13:03:56.874Z,2.65
2022-11-12T13:06:29.524Z,2.30
2022-11-12T13:09:01.854Z,2.80
2022-11-12T13:12:12.899Z,2.65
2022-11-12T13:15:15.334Z,2.30
2022-11-12T13:17:46.650Z,2.45
2022-11-12T13:20:34.548Z,3.00
2022-11-12T13:23:04.498Z,3.50
2022-11-12T13:25:34.091Z,3.03
2022-11-12T13:28:10.169Z,2.38
2022-11-12T13:30:58.438Z,2.00
2022-11-12T13:33:32.520Z,1.80
2022-11-12T13:36:34.048Z,2.00
2022-11-12T13:39:15.696Z,2.03
2022-11-12T13:42:01.363Z,4.30
2022-11-12T13:44:30.758Z,3.20
2022-11-12T13:46:59.235Z,3.30
2022-11-12T13:49:29.247Z,3.30
2022-11-12T13:51:58.714Z,3.50
2022-11-12T13:54:40.466Z,6.47
2022-11-12T13:57:31.101Z,4.95
2022-11-12T14:00:23.273Z,2.75
2022-11-12T14:02:55.778Z,3.65
2022-11-12T14:05:28.721Z,2.92
2022-11-12T14:08:15.386Z,3.10
2022-11-12T14:10:58.124Z,2.63
2022-11-12T14:13:46.722Z,2.30
2022-11-12T14:16:27.445Z,1.80
2022-11-12T14:19:27.206Z,1.77
2022-11-12T14:22:14.926Z,1.75
2022-11-12T14:24:46.090Z,1.25
2022-11-12T14:27:26.091Z,1.30
2022-11-12T14:30:12.494Z,1.60
2022-11-12T14:32:42.939Z,2.90
2022-11-12T14:35:36.766Z,2.92
2022-11-12T14:38:13.206Z,3.50
2022-11-12T14:40:46.601Z,3.95
2022-11-12T14:43:27.878Z,7.18
2022-11-12T14:45:58.418Z,21.80
2022-11-12T14:48:27.221Z,22.33
2022-11-12T14:51:01.624Z,13.45
2022-11-12T14:53:34.605Z,7.53
2022-11-12T14:56:06.720Z,5.72
2022-11-12T14:58:35.742Z,4.78
2022-11-12T15:01:59.373Z,4.60
2022-11-12T15:04:20.922Z,3.35
2022-11-12T15:06:58.116Z,3.38
2022-11-12T15:09:39.597Z,3.83
2022-11-12T15:12:11.846Z,3.20
2022-11-12T15:14:40.663Z,3.03
2022-11-12T15:17:23.472Z,2.03
2022-11-12T15:19:52.341Z,1.50
2022-11-12T15:22:23.761Z,1.20
2022-11-12T15:24:53.864Z,1.10
2022-11-12T15:27:39.910Z,1.48
2022-11-12T15:30:23.708Z,1.70
2022-11-12T15:33:08.419Z,1.27
2022-11-12T15:35:44.896Z,2.10
2022-11-12T15:38:21.482Z,2.65
2022-11-12T15:40:57.535Z,2.60
2022-11-12T15:43:29.186Z,2.45
2022-11-12T15:45:58.390Z,2.42
2022-11-12T15:48:26.910Z,2.97
2022-11-12T15:50:55.947Z,3.10
2022-11-12T15:53:25.130Z,2.58
2022-11-12T15:55:55.717Z,2.40
2022-11-12T15:58:33.923Z,1.70
2022-11-12T16:01:03.085Z,2.35
2022-11-12T16:03:31.763Z,1.90
2022-11-12T16:06:05.476Z,2.97
2022-11-12T16:08:37.168Z,2.65
2022-11-12T16:11:27.282Z,1.90
2022-11-12T16:13:55.722Z,1.63
2022-11-12T16:16:24.310Z,1.60
2022-11-12T16:18:52.937Z,1.70
2022-11-12T16:21:21.335Z,2.72
2022-11-12T16:23:50.222Z,2.25
2022-11-12T16:26:24.938Z,2.28
2022-11-12T16:28:53.242Z,2.75
2022-11-12T16:31:22.824Z,1.90
2022-11-12T16:33:51.204Z,2.30
2022-11-12T16:36:20.367Z,2.90
2022-11-12T16:38:49.020Z,2.90
2022-11-12T16:41:17.314Z,3.83
2022-11-12T16:43:47.763Z,3.35
2022-11-12T16:46:22.610Z,4.78
2022-11-12T16:48:51.121Z,3.22
2022-11-12T16:51:21.062Z,3.05
2022-11-12T16:53:52.105Z,3.05
2022-11-12T16:56:22.206Z,4.53
2022-11-12T16:58:52.296Z,12.57
2022-11-12T17:01:26.016Z,28.08
2022-11-12T17:06:25.531Z,22.13
2022-11-12T17:08:55.442Z,15.70
2022-11-12T17:11:23.974Z,6.93
2022-11-12T17:13:53.803Z,5.93
2022-11-12T17:16:22.300Z,1.75
2022-11-12T17:18:53.940Z,2.15
2022-11-12T17:21:23.130Z,2.40
2022-11-12T17:23:51.932Z,2.22
2022-11-12T17:26:22.194Z,5.30
2022-11-12T17:28:57.520Z,9.00
2022-11-12T17:31:29.999Z,9.90
2022-11-12T17:33:58.835Z,11.15
2022-11-12T17:36:28.805Z,12.48
2022-11-12T17:38:58.222Z,13.27
2022-11-12T17:41:29.169Z,12.30
2022-11-12T17:43:58.223Z,11.50
2022-11-12T17:46:26.673Z,10.60
2022-11-12T17:48:57.219Z,9.85
2022-11-12T17:51:27.804Z,5.28
2022-11-12T17:53:56.253Z,4.68
2022-11-12T17:56:25.629Z,4.60
2022-11-12T17:58:55.067Z,3.70
2022-11-12T18:01:25.494Z,3.20
2022-11-12T18:03:58.778Z,3.15
2022-11-12T18:06:29.370Z,3.03
2022-11-12T18:08:59.532Z,3.92
2022-11-12T18:11:30.218Z,3.40
2022-11-12T18:13:59.318Z,3.15
2022-11-12T18:16:30.275Z,3.67
2022-11-12T18:19:00.054Z,3.72
2022-11-12T18:21:29.322Z,3.67
2022-11-12T18:23:57.950Z,3.47
2022-11-12T18:26:26.431Z,3.15
2022-11-12T18:28:55.915Z,3.65
2022-11-12T18:31:26.763Z,3.88
2022-11-12T18:33:56.960Z,6.30
2022-11-12T18:36:28.761Z,11.13
2022-11-12T18:38:57.730Z,12.73
2022-11-12T18:41:28.786Z,13.35
2022-11-12T18:43:57.996Z,10.60
2022-11-12T18:46:26.467Z,10.50
2022-11-12T18:48:55.367Z,11.32
2022-11-12T18:51:24.051Z,10.43
2022-11-12T18:53:54.253Z,11.77
2022-11-12T18:56:23.409Z,10.40
2022-11-12T18:58:52.246Z,11.32
2022-11-12T19:01:23.537Z,12.55
2022-11-12T19:03:55.104Z,12.45
2022-11-12T19:06:24.684Z,12.48
2022-11-12T19:09:00.765Z,11.30
2022-11-12T19:11:29.817Z,11.45
2022-11-12T19:13:58.587Z,13.00
2022-11-12T19:16:27.089Z,12.20
2022-11-12T19:18:56.104Z,11.02
2022-11-12T19:21:26.580Z,13.77
2022-11-12T19:23:57.802Z,20.00
2022-11-12T19:26:26.362Z,17.35
2022-11-12T19:28:56.442Z,11.75
2022-11-12T19:31:28.575Z,10.38
2022-11-12T19:33:58.196Z,9.63
2022-11-12T19:36:28.892Z,8.02
2022-11-12T19:39:02.868Z,5.05
2022-11-12T19:41:32.770Z,5.38
2022-11-12T19:44:03.434Z,11.07
2022-11-12T19:46:34.941Z,9.85
2022-11-12T19:49:04.638Z,11.18
2022-11-12T19:51:34.268Z,10.15
2022-11-12T19:54:06.449Z,9.20
2022-11-12T19:56:36.661Z,5.03
2022-11-12T19:59:06.551Z,4.22
2022-11-12T20:01:36.380Z,4.05
2022-11-12T20:04:06.225Z,2.75
2022-11-12T20:06:35.965Z,4.43
2022-11-12T20:09:10.181Z,2.92
2022-11-12T20:11:39.888Z,2.83
2022-11-12T20:14:09.969Z,2.00
2022-11-12T20:16:40.200Z,1.95
2022-11-12T20:19:10.250Z,2.00
2022-11-12T20:21:39.980Z,1.50
2022-11-12T20:24:13.476Z,1.45
2022-11-12T20:26:43.602Z,1.33
2022-11-12T20:29:13.833Z,1.30
2022-11-12T20:31:43.984Z,1.60
2022-11-12T20:34:14.624Z,2.45
2022-11-12T20:36:45.258Z,6.53
2022-11-12T20:39:16.585Z,7.18
2022-11-12T20:41:46.408Z,4.60
2022-11-12T20:44:16.956Z,3.45
2022-11-12T20:46:46.732Z,4.47
2022-11-12T20:49:17.364Z,4.00
2022-11-12T20:51:47.039Z,2.60
2022-11-12T20:54:19.203Z,2.17
2022-11-12T20:56:51.140Z,1.90
2022-11-12T20:59:19.778Z,1.58
2022-11-12T21:01:49.675Z,1.42
2022-11-12T21:04:19.294Z,1.70
2022-11-12T21:06:48.889Z,1.80
2022-11-12T21:09:20.344Z,2.28
2022-11-12T21:11:50.217Z,2.00
2022-11-12T21:14:19.776Z,1.98
2022-11-12T21:16:49.594Z,2.40
2022-11-12T21:19:19.203Z,2.67
2022-11-12T21:21:49.076Z,2.30
2022-11-12T21:24:19.417Z,3.15
2022-11-12T21:26:49.978Z,2.13
2022-11-12T21:29:19.151Z,1.80
2022-11-12T21:31:47.935Z,6.85
2022-11-12T21:34:16.399Z,2.20
2022-11-12T21:36:44.785Z,1.17
2022-11-12T21:39:13.295Z,2.05
2022-11-12T21:41:43.825Z,1.60
2022-11-12T21:44:12.345Z,1.38
2022-11-12T21:46:41.814Z,1.08
2022-11-12T21:49:11.098Z,3.03
2022-11-12T21:51:39.690Z,4.78
2022-11-12T21:54:09.492Z,6.03
2022-11-12T21:56:40.277Z,1.10
2022-11-12T21:59:10.166Z,0.93
2022-11-12T22:01:38.984Z,0.70
2022-11-12T22:04:11.843Z,1.10
2022-11-12T22:06:42.600Z,1.00
2022-11-12T22:09:11.034Z,0.60
2022-11-12T22:11:40.647Z,0.90
2022-11-12T22:14:11.134Z,0.70
2022-11-12T22:16:39.765Z,0.77
2022-11-12T22:19:08.214Z,1.50
2022-11-12T22:21:40.014Z,1.50
2022-11-12T22:24:09.378Z,1.70
2022-11-12T22:26:39.292Z,1.20
2022-11-12T22:29:07.877Z,1.40
2022-11-12T22:31:37.828Z,1.10
2022-11-12T22:34:07.838Z,1.20
2022-11-12T22:36:36.909Z,1.23
2022-11-12T22:39:06.777Z,1.00
2022-11-12T22:41:35.306Z,1.33
2022-11-12T22:44:04.292Z,1.35
2022-11-12T22:46:35.283Z,1.20
2022-11-12T22:49:06.372Z,0.90
2022-11-12T22:51:36.101Z,1.20
2022-11-12T22:54:07.014Z,1.63
2022-11-12T22:56:35.536Z,2.00
2022-11-12T22:59:05.212Z,2.67
2022-11-12T23:01:35.484Z,1.70
2022-11-12T23:04:07.846Z,1.60
2022-11-12T23:06:36.885Z,0.70
2022-11-12T23:09:06.148Z,0.80
2022-11-12T23:11:37.122Z,1.20
2022-11-12T23:14:06.161Z,0.65
2022-11-12T23:16:35.542Z,0.85
2022-11-12T23:19:05.351Z,0.90
2022-11-12T23:21:33.769Z,1.13
2022-11-12T23:24:02.088Z,1.70
2022-11-12T23:26:32.454Z,1.40
2022-11-12T23:29:00.909Z,1.70
2022-11-12T23:31:31.724Z,1.83
2022-11-12T23:34:01.741Z,1.70
2022-11-12T23:36:32.336Z,2.10
2022-11-12T23:39:01.190Z,1.80
2022-11-12T23:41:29.617Z,1.73
2022-11-12T23:43:59.127Z,2.03
2022-11-12T23:46:27.571Z,2.25
2022-11-12T23:48:56.365Z,2.90
2022-11-12T23:51:24.852Z,2.58
2022-11-12T23:53:54.677Z,2.50
2022-11-12T23:56:23.056Z,1.92
2022-11-12T23:58:55.038Z,2.15
